sensor_id;sensor_type;location;lat;lon;timestamp;P1;durP1;ratioP1;P2;durP2;ratioP2
677;SDS011;321;48.814;9.132;2023-05-16T00:01:40;2.77;;;2.43;;
677;SDS011;321;48.814;9.132;2023-05-16T00:04:06;2.43;;;2.10;;
677;SDS011;321;48.814;9.132;2023-05-16T00:06:32;3.00;;;2.60;;
677;SDS011;321;48.814;9.132;2023-05-16T00:08:58;3.03;;;2.80;;
677;SDS011;321;48.814;9.132;2023-05-16T00:11:25;3.43;;;3.13;;
677;SDS011;321;48.814;9.132;2023-05-16T00:13:51;5.43;;;2.60;;
677;SDS011;321;48.814;9.132;2023-05-16T00:16:17;2.23;;;2.03;;
677;SDS011;321;48.814;9.132;2023-05-16T00:18:45;2.60;;;2.30;;
677;SDS011;321;48.814;9.132;2023-05-16T00:21:11;2.43;;;2.20;;
677;SDS011;321;48.814;9.132;2023-05-16T00:23:37;3.90;;;3.00;;
677;SDS011;321;48.814;9.132;2023-05-16T00:26:03;4.73;;;3.27;;
677;SDS011;321;48.814;9.132;2023-05-16T00:28:29;4.07;;;3.67;;
677;SDS011;321;48.814;9.132;2023-05-16T00:30:54;3.63;;;3.33;;
677;SDS011;321;48.814;9.132;2023-05-16T00:33:20;4.30;;;3.90;;
677;SDS011;321;48.814;9.132;2023-05-16T00:35:45;4.00;;;3.00;;
677;SDS011;321;48.814;9.132;2023-05-16T00:38:11;4.47;;;3.00;;
677;SDS011;321;48.814;9.132;2023-05-16T00:40:37;3.20;;;2.90;;
677;SDS011;321;48.814;9.132;2023-05-16T00:43:03;3.07;;;2.77;;
677;SDS011;321;48.814;9.132;2023-05-16T00:45:29;4.40;;;3.57;;
677;SDS011;321;48.814;9.132;2023-05-16T00:47:55;3.97;;;3.10;;
677;SDS011;321;48.814;9.132;2023-05-16T00:50:20;4.37;;;3.60;;
677;SDS011;321;48.814;9.132;2023-05-16T00:52:46;12.63;;;5.23;;
677;SDS011;321;48.814;9.132;2023-05-16T00:55:12;4.47;;;3.93;;
677;SDS011;321;48.814;9.132;2023-05-16T00:57:38;3.83;;;3.43;;
677;SDS011;321;48.814;9.132;2023-05-16T01:00:04;3.63;;;3.30;;
677;SDS011;321;48.814;9.132;2023-05-16T01:02:34;9.50;;;4.73;;
677;SDS011;321;48.814;9.132;2023-05-16T01:05:01;3.57;;;3.20;;
677;SDS011;321;48.814;9.132;2023-05-16T01:07:29;4.13;;;3.80;;
677;SDS011;321;48.814;9.132;2023-05-16T01:09:55;4.00;;;3.67;;
677;SDS011;321;48.814;9.132;2023-05-16T01:15:08;8.00;;;4.27;;
677;SDS011;321;48.814;9.132;2023-05-16T01:18:23;5.67;;;3.90;;
677;SDS011;321;48.814;9.132;2023-05-16T01:21:18;5.77;;;4.67;;
677;SDS011;321;48.814;9.132;2023-05-16T01:28:52;6.13;;;5.43;;
677;SDS011;321;48.814;9.132;2023-05-16T01:31:19;7.50;;;3.67;;
677;SDS011;321;48.814;9.132;2023-05-16T01:33:45;6.63;;;4.23;;
677;SDS011;321;48.814;9.132;2023-05-16T01:36:25;7.53;;;5.10;;
677;SDS011;321;48.814;9.132;2023-05-16T01:39:10;7.90;;;5.40;;
677;SDS011;321;48.814;9.132;2023-05-16T01:44:39;6.23;;;5.57;;
677;SDS011;321;48.814;9.132;2023-05-16T01:47:25;4.87;;;4.07;;
677;SDS011;321;48.814;9.132;2023-05-16T01:52:43;4.60;;;4.20;;
677;SDS011;321;48.814;9.132;2023-05-16T01:55:38;5.67;;;5.17;;
677;SDS011;321;48.814;9.132;2023-05-16T01:58:13;4.90;;;4.13;;
677;SDS011;321;48.814;9.132;2023-05-16T02:00:41;6.47;;;5.27;;
677;SDS011;321;48.814;9.132;2023-05-16T02:03:07;8.10;;;5.47;;
677;SDS011;321;48.814;9.132;2023-05-16T02:05:33;5.30;;;3.90;;
677;SDS011;321;48.814;9.132;2023-05-16T02:07:59;5.60;;;4.50;;
677;SDS011;321;48.814;9.132;2023-05-16T02:10:26;4.90;;;4.40;;
677;SDS011;321;48.814;9.132;2023-05-16T02:12:52;6.50;;;5.87;;
677;SDS011;321;48.814;9.132;2023-05-16T02:15:17;5.87;;;4.93;;
677;SDS011;321;48.814;9.132;2023-05-16T02:17:43;7.13;;;6.30;;
677;SDS011;321;48.814;9.132;2023-05-16T02:20:09;8.00;;;6.40;;
677;SDS011;321;48.814;9.132;2023-05-16T02:22:35;6.87;;;4.90;;
677;SDS011;321;48.814;9.132;2023-05-16T02:25:03;8.03;;;6.53;;
677;SDS011;321;48.814;9.132;2023-05-16T02:27:29;6.80;;;6.20;;
677;SDS011;321;48.814;9.132;2023-05-16T02:29:55;7.47;;;5.77;;
677;SDS011;321;48.814;9.132;2023-05-16T02:32:20;6.47;;;5.00;;
677;SDS011;321;48.814;9.132;2023-05-16T02:34:46;12.20;;;8.10;;
677;SDS011;321;48.814;9.132;2023-05-16T02:37:12;6.20;;;5.63;;
677;SDS011;321;48.814;9.132;2023-05-16T02:39:38;9.90;;;5.50;;
677;SDS011;321;48.814;9.132;2023-05-16T02:42:04;8.27;;;7.33;;
677;SDS011;321;48.814;9.132;2023-05-16T02:44:30;6.20;;;5.53;;
677;SDS011;321;48.814;9.132;2023-05-16T02:46:56;6.43;;;5.50;;
677;SDS011;321;48.814;9.132;2023-05-16T02:49:21;9.50;;;5.93;;
677;SDS011;321;48.814;9.132;2023-05-16T02:51:47;10.03;;;7.33;;
677;SDS011;321;48.814;9.132;2023-05-16T02:54:13;11.30;;;6.53;;
677;SDS011;321;48.814;9.132;2023-05-16T02:56:39;6.47;;;5.43;;
677;SDS011;321;48.814;9.132;2023-05-16T02:59:04;10.30;;;8.10;;
677;SDS011;321;48.814;9.132;2023-05-16T03:01:32;5.93;;;5.37;;
677;SDS011;321;48.814;9.132;2023-05-16T03:03:58;6.47;;;5.27;;
677;SDS011;321;48.814;9.132;2023-05-16T03:06:23;8.03;;;7.23;;
677;SDS011;321;48.814;9.132;2023-05-16T03:08:49;7.80;;;6.77;;
677;SDS011;321;48.814;9.132;2023-05-16T03:11:15;11.93;;;7.67;;
677;SDS011;321;48.814;9.132;2023-05-16T03:13:44;8.87;;;6.93;;
677;SDS011;321;48.814;9.132;2023-05-16T03:16:10;9.97;;;6.23;;
677;SDS011;321;48.814;9.132;2023-05-16T03:18:35;14.77;;;7.50;;
677;SDS011;321;48.814;9.132;2023-05-16T03:21:01;15.83;;;7.83;;
677;SDS011;321;48.814;9.132;2023-05-16T03:23:27;8.20;;;6.90;;
677;SDS011;321;48.814;9.132;2023-05-16T03:25:52;9.27;;;7.10;;
677;SDS011;321;48.814;9.132;2023-05-16T03:28:20;9.93;;;6.60;;
677;SDS011;321;48.814;9.132;2023-05-16T03:30:46;6.20;;;5.40;;
677;SDS011;321;48.814;9.132;2023-05-16T03:33:11;9.70;;;8.30;;
677;SDS011;321;48.814;9.132;2023-05-16T03:35:37;8.17;;;6.63;;
677;SDS011;321;48.814;9.132;2023-05-16T03:38:03;12.10;;;8.57;;
677;SDS011;321;48.814;9.132;2023-05-16T03:40:29;5.93;;;4.90;;
677;SDS011;321;48.814;9.132;2023-05-16T03:42:54;13.10;;;8.87;;
677;SDS011;321;48.814;9.132;2023-05-16T03:45:20;9.90;;;7.67;;
677;SDS011;321;48.814;9.132;2023-05-16T03:47:47;9.60;;;8.33;;
677;SDS011;321;48.814;9.132;2023-05-16T03:50:13;11.33;;;8.17;;
677;SDS011;321;48.814;9.132;2023-05-16T03:52:39;16.47;;;9.67;;
677;SDS011;321;48.814;9.132;2023-05-16T03:55:05;12.87;;;9.00;;
677;SDS011;321;48.814;9.132;2023-05-16T03:57:31;10.83;;;7.73;;
677;SDS011;321;48.814;9.132;2023-05-16T03:59:57;13.53;;;9.17;;
677;SDS011;321;48.814;9.132;2023-05-16T04:02:23;12.70;;;9.27;;
677;SDS011;321;48.814;9.132;2023-05-16T04:04:48;12.40;;;9.77;;
677;SDS011;321;48.814;9.132;2023-05-16T04:07:14;13.70;;;9.60;;
677;SDS011;321;48.814;9.132;2023-05-16T04:09:40;14.83;;;11.13;;
677;SDS011;321;48.814;9.132;2023-05-16T04:12:05;11.80;;;10.10;;
677;SDS011;321;48.814;9.132;2023-05-16T04:14:32;10.90;;;8.03;;
677;SDS011;321;48.814;9.132;2023-05-16T04:16:58;15.07;;;10.10;;
677;SDS011;321;48.814;9.132;2023-05-16T04:19:24;10.10;;;8.20;;
677;SDS011;321;48.814;9.132;2023-05-16T04:21:50;14.77;;;9.53;;
677;SDS011;321;48.814;9.132;2023-05-16T04:24:16;8.47;;;7.60;;
677;SDS011;321;48.814;9.132;2023-05-16T04:26:42;10.57;;;8.13;;
677;SDS011;321;48.814;9.132;2023-05-16T04:29:07;10.30;;;8.20;;
677;SDS011;321;48.814;9.132;2023-05-16T04:31:33;15.07;;;9.63;;
677;SDS011;321;48.814;9.132;2023-05-16T04:33:58;16.93;;;9.70;;
677;SDS011;321;48.814;9.132;2023-05-16T04:36:25;11.77;;;8.93;;
677;SDS011;321;48.814;9.132;2023-05-16T04:38:54;19.23;;;7.70;;
677;SDS011;321;48.814;9.132;2023-05-16T04:41:20;15.70;;;9.60;;
677;SDS011;321;48.814;9.132;2023-05-16T04:43:46;17.20;;;9.77;;
677;SDS011;321;48.814;9.132;2023-05-16T04:46:12;11.83;;;8.80;;
677;SDS011;321;48.814;9.132;2023-05-16T04:48:39;11.97;;;9.27;;
677;SDS011;321;48.814;9.132;2023-05-16T04:51:05;13.90;;;9.40;;
677;SDS011;321;48.814;9.132;2023-05-16T04:53:30;15.20;;;9.90;;
677;SDS011;321;48.814;9.132;2023-05-16T04:55:56;15.60;;;10.77;;
677;SDS011;321;48.814;9.132;2023-05-16T04:58:22;22.33;;;10.17;;
677;SDS011;321;48.814;9.132;2023-05-16T05:00:48;20.87;;;12.20;;
677;SDS011;321;48.814;9.132;2023-05-16T05:03:15;13.73;;;9.67;;
677;SDS011;321;48.814;9.132;2023-05-16T05:05:41;10.90;;;8.33;;
677;SDS011;321;48.814;9.132;2023-05-16T05:08:07;13.50;;;8.03;;
677;SDS011;321;48.814;9.132;2023-05-16T05:10:33;12.50;;;8.80;;
677;SDS011;321;48.814;9.132;2023-05-16T05:12:59;9.53;;;6.40;;
677;SDS011;321;48.814;9.132;2023-05-16T05:15:25;11.10;;;9.13;;
677;SDS011;321;48.814;9.132;2023-05-16T05:17:51;16.87;;;9.43;;
677;SDS011;321;48.814;9.132;2023-05-16T05:20:16;15.80;;;10.13;;
677;SDS011;321;48.814;9.132;2023-05-16T05:22:42;12.87;;;10.37;;
677;SDS011;321;48.814;9.132;2023-05-16T05:25:08;13.43;;;9.53;;
677;SDS011;321;48.814;9.132;2023-05-16T05:27:34;13.90;;;9.57;;
677;SDS011;321;48.814;9.132;2023-05-16T05:29:59;13.77;;;9.27;;
677;SDS011;321;48.814;9.132;2023-05-16T05:32:25;12.50;;;6.67;;
677;SDS011;321;48.814;9.132;2023-05-16T05:34:51;13.07;;;9.37;;
677;SDS011;321;48.814;9.132;2023-05-16T05:37:17;17.50;;;10.30;;
677;SDS011;321;48.814;9.132;2023-05-16T05:39:43;13.83;;;9.00;;
677;SDS011;321;48.814;9.132;2023-05-16T05:42:09;9.67;;;8.53;;
677;SDS011;321;48.814;9.132;2023-05-16T05:44:36;9.57;;;8.00;;
677;SDS011;321;48.814;9.132;2023-05-16T05:47:02;8.67;;;7.97;;
677;SDS011;321;48.814;9.132;2023-05-16T05:49:28;11.27;;;8.70;;
677;SDS011;321;48.814;9.132;2023-05-16T05:51:54;9.13;;;8.33;;
677;SDS011;321;48.814;9.132;2023-05-16T05:54:20;9.63;;;8.70;;
677;SDS011;321;48.814;9.132;2023-05-16T05:56:47;13.17;;;8.57;;
677;SDS011;321;48.814;9.132;2023-05-16T05:59:13;18.23;;;10.53;;
677;SDS011;321;48.814;9.132;2023-05-16T06:01:40;9.70;;;8.70;;
677;SDS011;321;48.814;9.132;2023-05-16T06:04:06;7.00;;;6.30;;
677;SDS011;321;48.814;9.132;2023-05-16T06:06:32;9.27;;;8.30;;
677;SDS011;321;48.814;9.132;2023-05-16T06:08:58;12.93;;;7.90;;
677;SDS011;321;48.814;9.132;2023-05-16T06:11:24;15.37;;;11.53;;
677;SDS011;321;48.814;9.132;2023-05-16T06:13:50;8.53;;;7.40;;
677;SDS011;321;48.814;9.132;2023-05-16T06:16:16;12.57;;;6.50;;
677;SDS011;321;48.814;9.132;2023-05-16T06:18:42;12.73;;;7.87;;
677;SDS011;321;48.814;9.132;2023-05-16T06:21:08;12.90;;;8.43;;
677;SDS011;321;48.814;9.132;2023-05-16T06:23:34;11.50;;;8.83;;
677;SDS011;321;48.814;9.132;2023-05-16T06:26:00;9.20;;;7.10;;
677;SDS011;321;48.814;9.132;2023-05-16T06:28:27;10.40;;;9.00;;
677;SDS011;321;48.814;9.132;2023-05-16T06:30:53;9.43;;;8.53;;
677;SDS011;321;48.814;9.132;2023-05-16T06:33:19;7.63;;;6.90;;
677;SDS011;321;48.814;9.132;2023-05-16T06:35:45;10.23;;;7.00;;
677;SDS011;321;48.814;9.132;2023-05-16T06:38:12;8.80;;;8.07;;
677;SDS011;321;48.814;9.132;2023-05-16T06:40:39;7.17;;;6.27;;
677;SDS011;321;48.814;9.132;2023-05-16T06:43:05;7.93;;;6.50;;
677;SDS011;321;48.814;9.132;2023-05-16T06:45:31;12.23;;;8.40;;
677;SDS011;321;48.814;9.132;2023-05-16T06:47:56;9.70;;;8.33;;
677;SDS011;321;48.814;9.132;2023-05-16T06:50:23;8.03;;;6.23;;
677;SDS011;321;48.814;9.132;2023-05-16T06:52:49;10.20;;;7.00;;
677;SDS011;321;48.814;9.132;2023-05-16T06:55:15;10.07;;;8.27;;
677;SDS011;321;48.814;9.132;2023-05-16T06:57:41;8.83;;;4.27;;
677;SDS011;321;48.814;9.132;2023-05-16T07:00:07;8.67;;;7.10;;
677;SDS011;321;48.814;9.132;2023-05-16T07:02:33;8.37;;;7.60;;
677;SDS011;321;48.814;9.132;2023-05-16T07:04:59;17.03;;;6.13;;
677;SDS011;321;48.814;9.132;2023-05-16T07:07:25;8.33;;;6.40;;
677;SDS011;321;48.814;9.132;2023-05-16T07:09:51;7.23;;;5.17;;
677;SDS011;321;48.814;9.132;2023-05-16T07:12:17;5.20;;;4.67;;
677;SDS011;321;48.814;9.132;2023-05-16T07:14:43;6.20;;;4.80;;
677;SDS011;321;48.814;9.132;2023-05-16T07:17:09;6.93;;;5.30;;
677;SDS011;321;48.814;9.132;2023-05-16T07:19:35;6.20;;;5.03;;
677;SDS011;321;48.814;9.132;2023-05-16T07:22:01;8.07;;;6.10;;
677;SDS011;321;48.814;9.132;2023-05-16T07:24:27;8.47;;;5.23;;
677;SDS011;321;48.814;9.132;2023-05-16T07:26:53;3.60;;;3.13;;
677;SDS011;321;48.814;9.132;2023-05-16T07:29:18;6.80;;;5.63;;
677;SDS011;321;48.814;9.132;2023-05-16T07:31:44;4.57;;;3.63;;
677;SDS011;321;48.814;9.132;2023-05-16T07:34:10;4.20;;;2.93;;
677;SDS011;321;48.814;9.132;2023-05-16T07:36:37;6.10;;;4.30;;
677;SDS011;321;48.814;9.132;2023-05-16T07:39:03;3.33;;;3.00;;
677;SDS011;321;48.814;9.132;2023-05-16T07:41:29;4.43;;;4.03;;
677;SDS011;321;48.814;9.132;2023-05-16T07:43:55;3.50;;;3.20;;
677;SDS011;321;48.814;9.132;2023-05-16T07:46:21;2.87;;;2.60;;
677;SDS011;321;48.814;9.132;2023-05-16T07:48:47;3.83;;;3.27;;
677;SDS011;321;48.814;9.132;2023-05-16T07:51:13;2.87;;;2.57;;
677;SDS011;321;48.814;9.132;2023-05-16T07:53:39;4.50;;;2.97;;
677;SDS011;321;48.814;9.132;2023-05-16T07:56:06;3.20;;;2.90;;
677;SDS011;321;48.814;9.132;2023-05-16T07:58:32;5.50;;;4.13;;
677;SDS011;321;48.814;9.132;2023-05-16T08:00:58;6.27;;;5.23;;
677;SDS011;321;48.814;9.132;2023-05-16T08:03:24;4.80;;;4.30;;
677;SDS011;321;48.814;9.132;2023-05-16T08:05:50;3.13;;;2.70;;
677;SDS011;321;48.814;9.132;2023-05-16T08:08:16;3.87;;;3.57;;
677;SDS011;321;48.814;9.132;2023-05-16T08:10:41;3.80;;;3.30;;
677;SDS011;321;48.814;9.132;2023-05-16T08:13:07;5.57;;;3.93;;
677;SDS011;321;48.814;9.132;2023-05-16T08:15:34;3.40;;;3.13;;
677;SDS011;321;48.814;9.132;2023-05-16T08:18:00;2.77;;;2.57;;
677;SDS011;321;48.814;9.132;2023-05-16T08:20:26;4.87;;;3.50;;
677;SDS011;321;48.814;9.132;2023-05-16T08:22:52;5.13;;;3.43;;
677;SDS011;321;48.814;9.132;2023-05-16T08:25:18;4.03;;;3.70;;
677;SDS011;321;48.814;9.132;2023-05-16T08:27:44;3.47;;;2.60;;
677;SDS011;321;48.814;9.132;2023-05-16T08:30:10;4.93;;;4.43;;
677;SDS011;321;48.814;9.132;2023-05-16T08:32:37;5.60;;;4.93;;
677;SDS011;321;48.814;9.132;2023-05-16T08:35:03;5.07;;;3.90;;
677;SDS011;321;48.814;9.132;2023-05-16T08:37:28;5.73;;;3.10;;
677;SDS011;321;48.814;9.132;2023-05-16T08:39:54;5.33;;;3.83;;
677;SDS011;321;48.814;9.132;2023-05-16T08:42:20;5.17;;;4.27;;
677;SDS011;321;48.814;9.132;2023-05-16T08:44:46;4.30;;;3.90;;
677;SDS011;321;48.814;9.132;2023-05-16T08:47:16;3.83;;;3.50;;
677;SDS011;321;48.814;9.132;2023-05-16T08:49:43;4.20;;;3.33;;
677;SDS011;321;48.814;9.132;2023-05-16T08:52:12;3.90;;;3.50;;
677;SDS011;321;48.814;9.132;2023-05-16T08:54:38;4.00;;;3.60;;
677;SDS011;321;48.814;9.132;2023-05-16T08:57:05;4.23;;;3.40;;
677;SDS011;321;48.814;9.132;2023-05-16T08:59:31;4.67;;;4.00;;
677;SDS011;321;48.814;9.132;2023-05-16T09:01:57;5.60;;;4.27;;
677;SDS011;321;48.814;9.132;2023-05-16T09:04:23;4.30;;;3.80;;
677;SDS011;321;48.814;9.132;2023-05-16T09:06:49;6.13;;;3.80;;
677;SDS011;321;48.814;9.132;2023-05-16T09:09:16;4.67;;;3.70;;
677;SDS011;321;48.814;9.132;2023-05-16T09:11:42;5.23;;;4.27;;
677;SDS011;321;48.814;9.132;2023-05-16T09:14:08;5.20;;;4.70;;
677;SDS011;321;48.814;9.132;2023-05-16T09:16:36;5.53;;;4.90;;
677;SDS011;321;48.814;9.132;2023-05-16T09:19:03;8.00;;;5.63;;
677;SDS011;321;48.814;9.132;2023-05-16T09:21:29;6.37;;;5.17;;
677;SDS011;321;48.814;9.132;2023-05-16T09:24:06;9.10;;;4.30;;
677;SDS011;321;48.814;9.132;2023-05-16T09:26:33;4.63;;;4.00;;
677;SDS011;321;48.814;9.132;2023-05-16T09:29:00;10.43;;;6.17;;
677;SDS011;321;48.814;9.132;2023-05-16T09:31:27;6.17;;;4.03;;
677;SDS011;321;48.814;9.132;2023-05-16T09:34:01;5.73;;;4.47;;
677;SDS011;321;48.814;9.132;2023-05-16T09:36:35;6.87;;;4.70;;
677;SDS011;321;48.814;9.132;2023-05-16T09:39:01;6.33;;;5.73;;
677;SDS011;321;48.814;9.132;2023-05-16T09:41:27;7.80;;;7.03;;
677;SDS011;321;48.814;9.132;2023-05-16T09:43:53;8.40;;;4.80;;
677;SDS011;321;48.814;9.132;2023-05-16T09:46:20;9.20;;;5.60;;
677;SDS011;321;48.814;9.132;2023-05-16T09:48:50;7.30;;;4.60;;
677;SDS011;321;48.814;9.132;2023-05-16T09:51:16;4.87;;;4.37;;
677;SDS011;321;48.814;9.132;2023-05-16T09:53:46;6.63;;;4.50;;
677;SDS011;321;48.814;9.132;2023-05-16T09:56:13;6.73;;;5.87;;
677;SDS011;321;48.814;9.132;2023-05-16T09:58:40;6.20;;;5.60;;
677;SDS011;321;48.814;9.132;2023-05-16T10:01:08;5.50;;;3.90;;
677;SDS011;321;48.814;9.132;2023-05-16T10:03:35;6.03;;;4.57;;
677;SDS011;321;48.814;9.132;2023-05-16T10:06:03;7.73;;;4.50;;
677;SDS011;321;48.814;9.132;2023-05-16T10:08:30;5.23;;;3.40;;
677;SDS011;321;48.814;9.132;2023-05-16T10:11:00;7.67;;;4.77;;
677;SDS011;321;48.814;9.132;2023-05-16T10:13:30;6.77;;;5.57;;
677;SDS011;321;48.814;9.132;2023-05-16T10:15:58;3.90;;;3.50;;
677;SDS011;321;48.814;9.132;2023-05-16T10:18:29;6.17;;;3.93;;
677;SDS011;321;48.814;9.132;2023-05-16T10:20:56;6.30;;;4.90;;
677;SDS011;321;48.814;9.132;2023-05-16T10:23:26;7.40;;;4.60;;
677;SDS011;321;48.814;9.132;2023-05-16T10:25:52;4.80;;;3.57;;
677;SDS011;321;48.814;9.132;2023-05-16T10:28:19;5.73;;;3.70;;
677;SDS011;321;48.814;9.132;2023-05-16T10:30:46;4.80;;;4.37;;
677;SDS011;321;48.814;9.132;2023-05-16T10:33:12;6.37;;;3.90;;
677;SDS011;321;48.814;9.132;2023-05-16T10:35:40;5.47;;;4.07;;
677;SDS011;321;48.814;9.132;2023-05-16T10:38:09;11.20;;;4.50;;
677;SDS011;321;48.814;9.132;2023-05-16T10:40:39;5.00;;;3.90;;
677;SDS011;321;48.814;9.132;2023-05-16T10:43:05;4.97;;;3.87;;
677;SDS011;321;48.814;9.132;2023-05-16T10:45:32;4.37;;;2.63;;
677;SDS011;321;48.814;9.132;2023-05-16T10:47:59;5.90;;;3.27;;
677;SDS011;321;48.814;9.132;2023-05-16T10:53:20;4.33;;;3.03;;
677;SDS011;321;48.814;9.132;2023-05-16T11:01:14;3.60;;;2.33;;
677;SDS011;321;48.814;9.132;2023-05-16T11:03:58;6.30;;;3.87;;
677;SDS011;321;48.814;9.132;2023-05-16T11:06:29;5.40;;;4.43;;
677;SDS011;321;48.814;9.132;2023-05-16T11:14:38;6.00;;;4.30;;
677;SDS011;321;48.814;9.132;2023-05-16T11:22:23;3.13;;;1.67;;
677;SDS011;321;48.814;9.132;2023-05-16T11:24:56;4.07;;;3.10;;
677;SDS011;321;48.814;9.132;2023-05-16T11:27:36;2.33;;;1.90;;
677;SDS011;321;48.814;9.132;2023-05-16T11:32:41;2.20;;;1.83;;
677;SDS011;321;48.814;9.132;2023-05-16T11:35:09;2.07;;;1.37;;
677;SDS011;321;48.814;9.132;2023-05-16T11:37:36;3.10;;;2.43;;
677;SDS011;321;48.814;9.132;2023-05-16T11:40:05;2.60;;;1.90;;
677;SDS011;321;48.814;9.132;2023-05-16T11:42:34;3.70;;;2.03;;
677;SDS011;321;48.814;9.132;2023-05-16T11:45:02;2.90;;;1.67;;
677;SDS011;321;48.814;9.132;2023-05-16T11:47:32;1.97;;;1.43;;
677;SDS011;321;48.814;9.132;2023-05-16T11:49:58;3.23;;;2.80;;
677;SDS011;321;48.814;9.132;2023-05-16T11:52:24;2.23;;;1.33;;
677;SDS011;321;48.814;9.132;2023-05-16T11:54:50;3.00;;;2.50;;
677;SDS011;321;48.814;9.132;2023-05-16T11:57:16;2.43;;;2.03;;
677;SDS011;321;48.814;9.132;2023-05-16T11:59:42;2.27;;;1.90;;
677;SDS011;321;48.814;9.132;2023-05-16T12:02:08;3.43;;;2.60;;
677;SDS011;321;48.814;9.132;2023-05-16T12:04:34;1.67;;;1.47;;
677;SDS011;321;48.814;9.132;2023-05-16T12:07:02;4.23;;;1.90;;
677;SDS011;321;48.814;9.132;2023-05-16T12:09:29;2.90;;;1.30;;
677;SDS011;321;48.814;9.132;2023-05-16T12:11:55;2.67;;;1.73;;
677;SDS011;321;48.814;9.132;2023-05-16T12:14:21;3.67;;;1.77;;
677;SDS011;321;48.814;9.132;2023-05-16T12:16:47;2.13;;;1.90;;
677;SDS011;321;48.814;9.132;2023-05-16T12:19:13;2.23;;;1.20;;
677;SDS011;321;48.814;9.132;2023-05-16T12:21:39;2.20;;;1.80;;
677;SDS011;321;48.814;9.132;2023-05-16T12:24:08;2.30;;;1.87;;
677;SDS011;321;48.814;9.132;2023-05-16T12:26:37;2.27;;;1.20;;
677;SDS011;321;48.814;9.132;2023-05-16T12:29:04;1.80;;;1.20;;
677;SDS011;321;48.814;9.132;2023-05-16T12:31:36;3.20;;;1.47;;
677;SDS011;321;48.814;9.132;2023-05-16T12:34:04;2.57;;;1.57;;
677;SDS011;321;48.814;9.132;2023-05-16T12:36:38;1.20;;;0.60;;
677;SDS011;321;48.814;9.132;2023-05-16T12:39:03;1.83;;;1.63;;
677;SDS011;321;48.814;9.132;2023-05-16T12:41:30;1.80;;;1.03;;
677;SDS011;321;48.814;9.132;2023-05-16T12:44:05;2.70;;;1.90;;
677;SDS011;321;48.814;9.132;2023-05-16T12:46:39;2.87;;;1.40;;
677;SDS011;321;48.814;9.132;2023-05-16T12:49:05;1.30;;;0.90;;
677;SDS011;321;48.814;9.132;2023-05-16T12:51:32;1.40;;;0.93;;
677;SDS011;321;48.814;9.132;2023-05-16T12:54:05;2.47;;;1.57;;
677;SDS011;321;48.814;9.132;2023-05-16T12:56:38;3.00;;;1.93;;
677;SDS011;321;48.814;9.132;2023-05-16T12:59:05;1.80;;;1.20;;
677;SDS011;321;48.814;9.132;2023-05-16T13:01:31;2.70;;;1.77;;
677;SDS011;321;48.814;9.132;2023-05-16T13:03:57;1.53;;;1.00;;
677;SDS011;321;48.814;9.132;2023-05-16T13:06:23;1.27;;;0.90;;
677;SDS011;321;48.814;9.132;2023-05-16T13:08:49;1.73;;;1.13;;
677;SDS011;321;48.814;9.132;2023-05-16T13:11:15;1.73;;;1.10;;
677;SDS011;321;48.814;9.132;2023-05-16T13:13:41;1.60;;;0.97;;
677;SDS011;321;48.814;9.132;2023-05-16T13:16:07;1.60;;;1.13;;
677;SDS011;321;48.814;9.132;2023-05-16T13:18:34;2.37;;;1.43;;
677;SDS011;321;48.814;9.132;2023-05-16T13:21:00;1.70;;;0.93;;
677;SDS011;321;48.814;9.132;2023-05-16T13:23:27;1.40;;;1.00;;
677;SDS011;321;48.814;9.132;2023-05-16T13:25:53;1.93;;;1.10;;
677;SDS011;321;48.814;9.132;2023-05-16T13:28:19;1.20;;;0.63;;
677;SDS011;321;48.814;9.132;2023-05-16T13:30:45;1.73;;;1.03;;
677;SDS011;321;48.814;9.132;2023-05-16T13:33:11;1.40;;;0.97;;
677;SDS011;321;48.814;9.132;2023-05-16T13:35:37;1.57;;;0.83;;
677;SDS011;321;48.814;9.132;2023-05-16T13:38:03;3.37;;;1.93;;
677;SDS011;321;48.814;9.132;2023-05-16T13:40:29;1.20;;;0.80;;
677;SDS011;321;48.814;9.132;2023-05-16T13:42:55;1.47;;;0.83;;
677;SDS011;321;48.814;9.132;2023-05-16T13:45:21;1.10;;;0.47;;
677;SDS011;321;48.814;9.132;2023-05-16T13:47:47;1.63;;;1.30;;
677;SDS011;321;48.814;9.132;2023-05-16T13:50:13;1.40;;;0.87;;
677;SDS011;321;48.814;9.132;2023-05-16T13:52:39;1.20;;;0.70;;
677;SDS011;321;48.814;9.132;2023-05-16T13:55:04;2.33;;;1.17;;
677;SDS011;321;48.814;9.132;2023-05-16T13:57:31;1.50;;;0.80;;
677;SDS011;321;48.814;9.132;2023-05-16T13:59:58;1.10;;;0.60;;
677;SDS011;321;48.814;9.132;2023-05-16T14:02:24;1.77;;;1.27;;
677;SDS011;321;48.814;9.132;2023-05-16T14:04:50;1.20;;;0.70;;
677;SDS011;321;48.814;9.132;2023-05-16T14:07:16;1.60;;;0.70;;
677;SDS011;321;48.814;9.132;2023-05-16T14:09:42;1.70;;;0.80;;
677;SDS011;321;48.814;9.132;2023-05-16T14:12:09;1.27;;;0.63;;
677;SDS011;321;48.814;9.132;2023-05-16T14:14:35;1.20;;;0.80;;
677;SDS011;321;48.814;9.132;2023-05-16T14:17:01;1.60;;;0.57;;
677;SDS011;321;48.814;9.132;2023-05-16T14:19:28;1.73;;;0.97;;
677;SDS011;321;48.814;9.132;2023-05-16T14:21:54;1.20;;;0.60;;
677;SDS011;321;48.814;9.132;2023-05-16T14:24:20;1.20;;;0.70;;
677;SDS011;321;48.814;9.132;2023-05-16T14:26:45;1.13;;;0.50;;
677;SDS011;321;48.814;9.132;2023-05-16T14:29:11;1.60;;;1.23;;
677;SDS011;321;48.814;9.132;2023-05-16T14:31:37;1.77;;;0.93;;
677;SDS011;321;48.814;9.132;2023-05-16T14:34:03;1.30;;;0.93;;
677;SDS011;321;48.814;9.132;2023-05-16T14:36:29;1.60;;;0.60;;
677;SDS011;321;48.814;9.132;2023-05-16T14:38:55;1.47;;;1.07;;
677;SDS011;321;48.814;9.132;2023-05-16T14:41:21;1.33;;;0.80;;
677;SDS011;321;48.814;9.132;2023-05-16T14:43:47;1.83;;;0.60;;
677;SDS011;321;48.814;9.132;2023-05-16T14:46:13;2.70;;;1.00;;
677;SDS011;321;48.814;9.132;2023-05-16T14:48:39;1.33;;;0.83;;
677;SDS011;321;48.814;9.132;2023-05-16T14:51:05;1.20;;;0.70;;
677;SDS011;321;48.814;9.132;2023-05-16T14:53:31;1.30;;;0.80;;
677;SDS011;321;48.814;9.132;2023-05-16T14:55:57;1.10;;;0.40;;
677;SDS011;321;48.814;9.132;2023-05-16T14:58:23;2.90;;;1.23;;
677;SDS011;321;48.814;9.132;2023-05-16T15:00:49;1.30;;;0.70;;
677;SDS011;321;48.814;9.132;2023-05-16T15:03:15;1.20;;;0.60;;
677;SDS011;321;48.814;9.132;2023-05-16T15:05:42;1.30;;;0.60;;
677;SDS011;321;48.814;9.132;2023-05-16T15:08:08;1.50;;;0.70;;
677;SDS011;321;48.814;9.132;2023-05-16T15:10:34;1.43;;;0.80;;
677;SDS011;321;48.814;9.132;2023-05-16T15:13:00;1.20;;;0.60;;
677;SDS011;321;48.814;9.132;2023-05-16T15:15:26;1.30;;;0.70;;
677;SDS011;321;48.814;9.132;2023-05-16T15:17:52;1.30;;;0.50;;
677;SDS011;321;48.814;9.132;2023-05-16T15:20:19;1.10;;;0.50;;
677;SDS011;321;48.814;9.132;2023-05-16T15:22:45;1.60;;;0.83;;
677;SDS011;321;48.814;9.132;2023-05-16T15:25:11;1.10;;;0.50;;
677;SDS011;321;48.814;9.132;2023-05-16T15:27:37;1.43;;;1.00;;
677;SDS011;321;48.814;9.132;2023-05-16T15:30:02;1.33;;;0.50;;
677;SDS011;321;48.814;9.132;2023-05-16T15:32:28;4.20;;;0.73;;
677;SDS011;321;48.814;9.132;2023-05-16T15:34:54;1.20;;;0.50;;
677;SDS011;321;48.814;9.132;2023-05-16T15:37:20;3.33;;;0.90;;
677;SDS011;321;48.814;9.132;2023-05-16T15:39:46;1.40;;;0.70;;
677;SDS011;321;48.814;9.132;2023-05-16T15:42:12;1.73;;;1.07;;
677;SDS011;321;48.814;9.132;2023-05-16T15:44:38;1.30;;;0.53;;
677;SDS011;321;48.814;9.132;2023-05-16T15:47:05;1.10;;;0.50;;
677;SDS011;321;48.814;9.132;2023-05-16T15:49:31;1.43;;;0.63;;
677;SDS011;321;48.814;9.132;2023-05-16T15:51:57;1.60;;;0.90;;
677;SDS011;321;48.814;9.132;2023-05-16T15:54:23;1.50;;;1.20;;
677;SDS011;321;48.814;9.132;2023-05-16T15:56:49;5.17;;;0.67;;
677;SDS011;321;48.814;9.132;2023-05-16T15:59:15;1.17;;;0.60;;
677;SDS011;321;48.814;9.132;2023-05-16T16:01:41;1.30;;;0.70;;
677;SDS011;321;48.814;9.132;2023-05-16T16:04:06;1.80;;;1.00;;
677;SDS011;321;48.814;9.132;2023-05-16T16:06:32;1.40;;;0.90;;
677;SDS011;321;48.814;9.132;2023-05-16T16:08:58;1.20;;;0.70;;
677;SDS011;321;48.814;9.132;2023-05-16T16:11:25;2.07;;;1.03;;
677;SDS011;321;48.814;9.132;2023-05-16T16:13:51;4.27;;;0.63;;
677;SDS011;321;48.814;9.132;2023-05-16T16:16:17;1.90;;;0.50;;